Date,TemperatureHighF,TemperatureAvgF,TemperatureLowF,DewpointHighF,DewpointAvgF,DewpointLowF,HumidityHigh,HumidityAvg,HumidityLow,PressureMaxIn,PressureMinIn,WindSpeedMaxMPH,WindSpeedAvgMPH,GustSpeedMaxMPH,PrecipitationSumIn
2013-5-1,64,59,57,62,59,57,99,99,99,30.27,30.11,17,5,17,0.00
2013-5-2,66,59,55,64,59,55,99,99,92,30.27,30.21,16,5,16,0.00
2013-5-3,72,59,51,63,54,47,99,84,63,30.21,30.11,18,6,18,0.00
2013-5-4,67,56,49,58,53,47,99,89,69,30.16,30.01,21,7,21,0.00
2013-5-5,61,56,50,61,56,50,99,99,96,30.04,29.91,18,7,18,0.00
2013-5-6,74,61,54,74,61,54,99,99,98,29.95,29.78,15,4,15,1.28
2013-5-7,76,60,50,67,56,50,99,89,52,29.92,29.81,11,2,11,0.00
2013-5-8,77,63,52,70,60,52,99,90,67,29.98,29.88,8,1,8,0.04
2013-5-9,83,67,53,69,62,54,99,85,54,30.03,29.93,13,2,13,0.01
2013-5-10,90,73,56,74,66,56,99,80,51,30.04,29.91,11,1,11,0.00
2013-5-11,86,74,66,74,69,64,99,85,57,29.95,29.76,14,3,14,0.00
2013-5-12,76,67,56,68,57,39,99,72,47,29.98,29.76,16,4,16,0.02
2013-5-13,69,58,48,44,40,37,77,54,36,30.13,29.98,14,3,14,0.00
2013-5-14,75,58,41,49,44,39,99,63,37,30.23,30.05,12,2,12,0.00
2013-5-15,91,70,49,70,60,45,99,75,48,30.06,29.88,14,2,14,0.00
2013-5-16,88,75,64,71,66,63,99,76,48,29.96,29.87,15,3,15,0.00
2013-5-17,93,77,64,75,69,64,99,79,46,30.05,29.95,8,1,8,0.00
2013-5-18,84,72,62,75,69,62,99,90,66,30.13,30.04,8,1,8,0.01
2013-5-19,85,71,66,81,71,66,99,97,82,30.12,30.02,14,1,14,0.20
2013-5-20,80,71,66,80,71,66,99,99,99,30.09,29.99,9,1,9,0.26
2013-5-21,88,74,67,82,73,67,99,97,78,30.02,29.92,8,1,8,0.07
2013-5-22,90,75,66,80,72,66,99,91,65,30.01,29.88,9,2,9,0.00
2013-5-23,85,72,67,79,72,67,99,97,77,29.94,29.80,8,1,8,0.24
2013-5-24,74,66,52,71,58,44,99,78,44,30.15,29.77,27,6,27,0.02
2013-5-25,76,59,43,55,48,43,99,70,38,30.24,30.10,12,3,12,0.00
2013-5-26,76,62,52,58,51,45,99,69,46,30.24,30.14,12,2,12,0.00
2013-5-27,90,68,50,66,58,50,99,75,43,30.24,30.13,9,1,9,0.00
2013-5-28,89,73,58,76,68,58,99,86,60,30.23,30.12,11,1,11,0.00
2013-5-29,90,74,60,76,69,60,99,85,58,30.23,30.13,10,1,10,0.00
2013-5-30,92,76,60,78,69,60,99,83,55,30.25,30.14,11,2,11,0.00
2013-5-31,93,78,64,79,72,64,99,85,57,30.21,30.07,11,2,11,0.00